Potomac Taxi I — WDJ7386 — position and weather

sailwx.info

Track history (hours):
 
Tides and Currents Weather Stations Pressure Air Temp Water Temp Dewpoint Dewpoint Depression Visibility Wind Speed Wind Dir Waves Ship Positions

Potomac Taxi I

Owner: Potomac River Boat Company, Alexandria, VA. More information available from US FCC via Universal Licensing System and Coast Guard Vessel Documentation Center.

Last reported at 2018-Aug-16 04:25 UTC. Time now 2018-Aug-16 08:01 UTC.
Position N 38°53' W 077°02'.

Length 27 m.

Type: Passenger vessel. MMSI: 368006220.

Date/timePositionNaut miles runAvg speedWind from/ knotsBaromVisibWave heightAir tempDewpointWater temp
2018-Aug-16 04:25N 38°53' W 077°02'0 0.0
2018-Aug-16 03:55N 38°53' W 077°02'0 0.0
2018-Aug-16 03:25N 38°53' W 077°02'0 0.0
2018-Aug-16 02:56N 38°53' W 077°02'0 0.5
2018-Aug-16 02:30N 38°53' W 077°02'611.5
2018-Aug-16 02:00N 38°47' W 077°01'1 1.7
2018-Aug-16 01:28N 38°48' W 077°02'5 9.6
2018-Aug-16 00:55N 38°53' W 077°02'2 5.6
2018-Aug-16 00:30N 38°50' W 077°01'3 4.9
2018-Aug-15 23:49N 38°47' W 077°01'2 7.7
2018-Aug-15 23:30N 38°49' W 077°02'3 6.3
2018-Aug-15 22:59N 38°53' W 077°02'611.6
2018-Aug-15 22:28N 38°47' W 077°02'1 1.3
2018-Aug-15 21:59N 38°47' W 077°01'510.9
2018-Aug-15 21:30N 38°52' W 077°01'1 2.2
2018-Aug-15 20:59N 38°51' W 077°01'4 5.3
2018-Aug-15 20:14N 38°47' W 077°01'1 3.5
2018-Aug-15 20:00N 38°47' W 077°02'610.1
2018-Aug-15 19:26N 38°53' W 077°02'1 3.1
2018-Aug-15 19:00N 38°51' W 077°01'4 5.9
2018-Aug-15 18:16N 38°47' W 077°01'1 5.3
2018-Aug-15 18:00N 38°48' W 077°02'5 9.2
2018-Aug-15 17:30N 38°53' W 077°02'1 2.2
2018-Aug-15 17:00N 38°52' W 077°01'5 6.3
2018-Aug-15 16:17N 38°47' W 077°01'1 4.0
2018-Aug-15 16:00N 38°48' W 077°02'5 8.3
2018-Aug-15 15:25N 38°53' W 077°02'4 9.9
2018-Aug-15 15:00N 38°49' W 077°02'2 2.9
2018-Aug-15 14:25N 38°47' W 077°01'5 9.4
2018-Aug-15 13:56N 38°52' W 077°01'1 2.3
2018-Aug-15 13:24N 38°53' W 077°02'0 0.0
2018-Aug-15 12:54N 38°53' W 077°02'411.1
2018-Aug-15 12:31N 38°48' W 077°02'1 2.7
2018-Aug-15 11:59N 38°47' W 077°01'5 9.8
2018-Aug-15 11:30N 38°52' W 077°01'1 0.1
2018-Aug-15 04:21N 38°53' W 077°02'410.4
2018-Aug-15 04:00N 38°49' W 077°02'2 4.7
2018-Aug-15 03:30N 38°47' W 077°01'510.2
2018-Aug-15 02:59N 38°52' W 077°01'1 1.4
2018-Aug-15 02:29N 38°52' W 077°01'4 5.3
2018-Aug-15 01:40N 38°47' W 077°01'1 4.9
2018-Aug-15 01:30N 38°47' W 077°02'611.9
2018-Aug-15 01:00N 38°53' W 077°02'2 4.3
2018-Aug-15 00:30N 38°51' W 077°01'4 5.2
2018-Aug-14 23:45N 38°47' W 077°02'2 8.4
2018-Aug-14 23:30N 38°49' W 077°02'4 7.8
2018-Aug-14 23:00N 38°53' W 077°02'5 8.8
2018-Aug-14 22:28N 38°48' W 077°02'1 2.2
2018-Aug-14 21:53N 38°47' W 077°02'513.5
2018-Aug-14 21:30N 38°52' W 077°01'0 0.2
2018-Aug-14 21:00N 38°52' W 077°01'5 6.1
2018-Aug-14 20:15N 38°47' W 077°01'1 3.4
2018-Aug-14 20:00N 38°47' W 077°02'611.2
2018-Aug-14 19:30N 38°53' W 077°02'1 2.1
2018-Aug-14 19:00N 38°52' W 077°01'5 5.8
2018-Aug-14 18:12N 38°47' W 077°01'1 3.8
2018-Aug-14 17:58N 38°48' W 077°02'510.3
2018-Aug-14 17:27N 38°53' W 077°02'1 2.2
2018-Aug-14 16:57N 38°52' W 077°01'5 9.8
2018-Aug-14 16:29N 38°47' W 077°01'1 1.8
2018-Aug-14 16:00N 38°47' W 077°02'610.1
2018-Aug-14 15:27N 38°53' W 077°02'3 7.4
2018-Aug-14 14:59N 38°49' W 077°02'3 3.6
2018-Aug-14 14:14N 38°47' W 077°02'413.2
2018-Aug-14 13:55N 38°51' W 077°01'2 3.7
2018-Aug-14 13:30N 38°52' W 077°01'0 0.7
2018-Aug-14 12:54N 38°53' W 077°02'511.4
2018-Aug-14 12:30N 38°48' W 077°02'2 2.4
2018-Aug-14 11:52N 38°47' W 077°02'412.1
2018-Aug-14 11:30N 38°51' W 077°01'2 2.5
2018-Aug-14 10:50N 38°53' W 077°02'0 0.0
2018-Aug-13 20:01N 38°53' W 077°02'0 0.0
2018-Aug-13 19:55N 38°53' W 077°02'0 0.0
2018-Aug-13 18:12N 38°53' W 077°02'0 0.0
2018-Aug-13 18:00N 38°53' W 077°02'0 0.5
2018-Aug-13 17:12N 38°52' W 077°01'0 0.0
2018-Aug-13 16:54N 38°52' W 077°01'0 0.0
2018-Aug-13 16:21N 38°52' W 077°01'0 0.0
2018-Aug-13 15:54N 38°52' W 077°01'0 0.0
2018-Aug-13 15:21N 38°52' W 077°01'0 0.0
2018-Aug-13 14:54N 38°52' W 077°01'0 0.1
2018-Aug-13 14:29N 38°52' W 077°01'0 0.7
2018-Aug-13 13:52N 38°53' W 077°02'0 0.1
2018-Aug-13 13:28N 38°53' W 077°02'0 0.0
2018-Aug-13 02:47N 38°53' W 077°02'413.7
2018-Aug-13 02:30N 38°49' W 077°02'2 4.3
2018-Aug-13 02:00N 38°51' W 077°01'1 1.1
2018-Aug-13 01:24N 38°52' W 077°01'3 6.0
2018-Aug-13 00:50N 38°48' W 077°02'412.5
2018-Aug-13 00:29N 38°53' W 077°02'0 0.2
2018-Aug-13 00:00N 38°53' W 077°02'4 8.3
2018-Aug-12 23:29N 38°48' W 077°02'4 6.9
2018-Aug-12 22:50N 38°53' W 077°02'412.6
2018-Aug-12 22:30N 38°49' W 077°02'3 6.6
2018-Aug-12 22:00N 38°52' W 077°01'0 0.9
2018-Aug-12 21:28N 38°52' W 077°01'4 8.5
2018-Aug-12 21:00N 38°48' W 077°02'4 7.6
2018-Aug-12 20:25N 38°53' W 077°02'4 8.2
2018-Aug-12 19:56N 38°49' W 077°02'0 0.5
2018-Aug-12 19:26N 38°49' W 077°02'4 7.1
2018-Aug-12 18:51N 38°53' W 077°02'410.9
2018-Aug-12 18:27N 38°48' W 077°02'3 7.3
2018-Aug-12 18:00N 38°52' W 077°01'1 1.6
2018-Aug-12 17:30N 38°52' W 077°01'4 7.5
2018-Aug-12 16:58N 38°48' W 077°02'4 9.5
2018-Aug-12 16:30N 38°53' W 077°02'3 5.7
2018-Aug-12 16:00N 38°50' W 077°02'1 2.4
2018-Aug-12 15:30N 38°49' W 077°02'4 8.0
2018-Aug-12 14:59N 38°53' W 077°02'0 0.0
2018-Aug-12 14:26N 38°53' W 077°02'0 0.1
2018-Aug-12 13:55N 38°53' W 077°02'0 0.0
2018-Aug-12 04:28N 38°53' W 077°02'1 1.9
2018-Aug-12 04:00N 38°52' W 077°01'4 7.2
2018-Aug-12 03:30N 38°48' W 077°02'4 7.5
2018-Aug-12 02:55N 38°53' W 077°02'410.2
2018-Aug-12 02:29N 38°48' W 077°02'3 5.3
2018-Aug-12 02:00N 38°51' W 077°01'2 3.1
2018-Aug-12 01:30N 38°52' W 077°01'4 8.0
2018-Aug-12 00:58N 38°48' W 077°02'4 5.1
2018-Aug-12 00:06N 38°53' W 077°02'0 3.8
2018-Aug-12 00:00N 38°52' W 077°01'4 8.0
2018-Aug-11 23:29N 38°48' W 077°02'4 7.6
2018-Aug-11 22:54N 38°53' W 077°02'410.1
2018-Aug-11 22:28N 38°48' W 077°02'4 8.6
2018-Aug-11 22:00N 38°52' W 077°01'1 1.9
2018-Aug-11 21:29N 38°51' W 077°01'3 6.4
2018-Aug-11 21:00N 38°48' W 077°02'4 8.3
2018-Aug-11 20:29N 38°53' W 077°02'1 2.9
2018-Aug-11 19:58N 38°51' W 077°01'1 1.2
2018-Aug-11 19:27N 38°51' W 077°01'1 2.6
2018-Aug-11 18:58N 38°52' W 077°01'3 7.2
2018-Aug-11 18:30N 38°48' W 077°02'3 5.7
2018-Aug-11 17:59N 38°51' W 077°01'1 2.2
2018-Aug-11 17:29N 38°52' W 077°01'4 7.9
2018-Aug-11 16:57N 38°48' W 077°02'4 9.2
2018-Aug-11 16:28N 38°53' W 077°02'2 4.2
2018-Aug-11 16:00N 38°51' W 077°01'2 4.6
2018-Aug-11 15:30N 38°49' W 077°02'4 7.0
2018-Aug-11 14:55N 38°53' W 077°02'0 0.1
2018-Aug-11 14:29N 38°53' W 077°02'0 0.0
2018-Aug-11 13:59N 38°53' W 077°02'0 0.0
2018-Aug-11 13:26N 38°53' W 077°02'0 0.0
2018-Aug-11 12:56N 38°53' W 077°02'0 0.0
2018-Aug-11 12:17N 38°53' W 077°02'0 0.0
2018-Aug-11 11:59N 38°53' W 077°02'0 0.0
2018-Aug-11 11:29N 38°53' W 077°02'0 0.0
2018-Aug-11 10:59N 38°53' W 077°02'0 0.0
2018-Aug-11 10:29N 38°53' W 077°02'0 0.0
2018-Aug-11 09:59N 38°53' W 077°02'0 0.0
2018-Aug-11 09:26N 38°53' W 077°02'0 0.0
2018-Aug-11 08:59N 38°53' W 077°02'0 0.0
2018-Aug-11 08:29N 38°53' W 077°02'0 0.0
2018-Aug-11 08:00N 38°53' W 077°02'0 0.0
2018-Aug-11 07:29N 38°53' W 077°02'0 0.0
2018-Aug-11 06:59N 38°53' W 077°02'0 0.0
2018-Aug-11 06:20N 38°53' W 077°02'0 0.0
2018-Aug-11 05:56N 38°53' W 077°02'0 0.0
2018-Aug-11 05:29N 38°53' W 077°02'0 0.0
2018-Aug-11 04:59N 38°53' W 077°02'0 0.0
2018-Aug-11 04:26N 38°53' W 077°02'1 1.7
2018-Aug-11 04:00N 38°52' W 077°01'4 7.7
2018-Aug-11 03:30N 38°48' W 077°02'4 7.7
2018-Aug-11 02:56N 38°53' W 077°02'4 9.7
2018-Aug-11 02:29N 38°48' W 077°02'4 7.0
2018-Aug-11 01:57N 38°52' W 077°01'0 0.8
2018-Aug-11 01:30N 38°52' W 077°01'4 6.3
2018-Aug-11 00:51N 38°48' W 077°02'411.2
2018-Aug-11 00:28N 38°53' W 077°02'0 1.0
2018-Aug-10 23:59N 38°52' W 077°01'4 7.8
2018-Aug-10 23:29N 38°48' W 077°02'4 7.6
2018-Aug-10 22:54N 38°53' W 077°02'410.8
2018-Aug-10 22:30N 38°48' W 077°02'4 6.5
2018-Aug-10 21:57N 38°52' W 077°01'0 0.8
2018-Aug-10 21:30N 38°52' W 077°01'4 7.1
2018-Aug-10 20:55N 38°48' W 077°02'410.6
2018-Aug-10 20:30N 38°53' W 077°02'2 3.4
2018-Aug-10 20:00N 38°51' W 077°01'2 4.1
2018-Aug-10 19:29N 38°49' W 077°02'4 7.6
2018-Aug-10 18:59N 38°53' W 077°02'4 7.9
2018-Aug-10 18:26N 38°48' W 077°02'4 9.0
2018-Aug-10 18:00N 38°52' W 077°01'0 0.2
2018-Aug-10 17:29N 38°52' W 077°01'4 6.6
2018-Aug-10 16:54N 38°48' W 077°02'410.7
2018-Aug-10 16:29N 38°53' W 077°02'2 4.6
2018-Aug-10 15:59N 38°51' W 077°01'2 3.0
2018-Aug-10 15:29N 38°52' W 077°01'0 0.8
2018-Aug-10 15:00N 38°52' W 077°01'0 0.1
2018-Aug-10 14:26N 38°52' W 077°01'1 1.8
2018-Aug-10 14:00N 38°52' W 077°01'2 2.9
2018-Aug-10 13:26N 38°50' W 077°02'3 4.1
2018-Aug-10 12:45N 38°53' W 077°02'0 0.0
2018-Aug-10 12:16N 38°53' W 077°02'0 0.0
2018-Aug-10 03:00N 38°53' W 077°02'4 8.3
2018-Aug-10 02:30N 38°49' W 077°02'3 5.2
2018-Aug-10 02:00N 38°51' W 077°01'1 2.7
2018-Aug-10 01:30N 38°52' W 077°01'4 8.1
2018-Aug-10 00:59N 38°48' W 077°02'4 8.8
2018-Aug-10 00:30N 38°53' W 077°01'1 1.1
2018-Aug-09 23:57N 38°52' W 077°01'4 8.4
2018-Aug-09 23:30N 38°48' W 077°02'4 7.3
2018-Aug-09 22:54N 38°53' W 077°02'410.4
2018-Aug-09 22:29N 38°48' W 077°02'3 5.9
2018-Aug-09 21:59N 38°51' W 077°01'1 2.7
2018-Aug-09 21:30N 38°52' W 077°01'4 8.5
2018-Aug-09 21:00N 38°48' W 077°02'4 8.6
2018-Aug-09 20:29N 38°53' W 077°02'2 3.5
2018-Aug-09 19:59N 38°51' W 077°01'3 5.6
2018-Aug-09 19:30N 38°48' W 077°02'4 7.9
2018-Aug-09 18:57N 38°53' W 077°02'410.1
2018-Aug-09 18:30N 38°48' W 077°02'3 5.0
2018-Aug-09 17:59N 38°51' W 077°01'2 3.5
2018-Aug-09 17:30N 38°53' W 077°01'4 8.6
2018-Aug-09 17:00N 38°48' W 077°02'4 8.6
2018-Aug-09 16:30N 38°53' W 077°02'2 3.4
2018-Aug-09 15:59N 38°51' W 077°01'2 5.1
2018-Aug-09 15:30N 38°48' W 077°02'4 8.1
2018-Aug-09 14:58N 38°53' W 077°02'0 0.1
2018-Aug-09 14:27N 38°53' W 077°02'0 0.2
2018-Aug-09 13:59N 38°53' W 077°02'0 0.0
2018-Aug-09 02:55N 38°53' W 077°02'410.2
2018-Aug-09 02:30N 38°48' W 077°02'3 6.1
2018-Aug-09 02:00N 38°51' W 077°01'1 2.1
2018-Aug-09 01:30N 38°52' W 077°01'4 6.5
2018-Aug-09 00:52N 38°48' W 077°02'412.1
2018-Aug-09 00:30N 38°53' W 077°01'0 0.5
2018-Aug-09 00:00N 38°52' W 077°01'4 7.2
2018-Aug-08 23:27N 38°48' W 077°02'4 7.8
2018-Aug-08 22:54N 38°53' W 077°02'410.5
2018-Aug-08 22:30N 38°48' W 077°02'4 6.7
2018-Aug-08 21:57N 38°52' W 077°01'0 0.7
2018-Aug-08 21:29N 38°52' W 077°01'4 8.2
2018-Aug-08 20:59N 38°48' W 077°02'4 9.1
2018-Aug-08 20:29N 38°53' W 077°02'2 3.5
2018-Aug-08 20:00N 38°51' W 077°01'3 5.0
2018-Aug-08 19:29N 38°49' W 077°02'4 6.7
2018-Aug-08 18:52N 38°53' W 077°02'411.5
2018-Aug-08 18:30N 38°48' W 077°02'3 6.3
2018-Aug-08 18:00N 38°51' W 077°01'1 2.1
2018-Aug-08 17:29N 38°52' W 077°01'4 6.1
2018-Aug-08 16:49N 38°48' W 077°02'411.1
2018-Aug-08 16:25N 38°53' W 077°02'2 3.8
2018-Aug-08 15:58N 38°51' W 077°01'3 6.1
2018-Aug-08 15:30N 38°48' W 077°02'4 8.6
2018-Aug-08 14:59N 38°53' W 077°02'0 0.1
2018-Aug-08 14:30N 38°53' W 077°02'0 0.0
2018-Aug-08 03:01N 38°53' W 077°02'0 0.8
2018-Aug-08 02:53N 38°53' W 077°02'411.7
2018-Aug-08 02:30N 38°48' W 077°02'3 6.2
2018-Aug-08 02:00N 38°51' W 077°01'1 2.2
2018-Aug-08 01:30N 38°52' W 077°01'4 7.5
2018-Aug-08 00:56N 38°48' W 077°02'4 9.3
2018-Aug-08 00:29N 38°53' W 077°02'1 1.4
2018-Aug-07 23:59N 38°52' W 077°01'4 7.4
2018-Aug-07 23:29N 38°48' W 077°02'4 7.6
2018-Aug-07 22:55N 38°53' W 077°02'410.4
2018-Aug-07 22:29N 38°48' W 077°02'3 6.2
2018-Aug-07 21:58N 38°52' W 077°01'1 1.6
2018-Aug-07 21:28N 38°52' W 077°01'4 8.3
2018-Aug-07 20:58N 38°48' W 077°02'4 9.3
2018-Aug-07 20:30N 38°53' W 077°02'4 7.0
2018-Aug-07 19:56N 38°49' W 077°02'0 0.7
2018-Aug-07 19:29N 38°49' W 077°02'4 6.4
2018-Aug-07 18:55N 38°53' W 077°02'410.4
2018-Aug-07 18:30N 38°49' W 077°02'3 6.7
2018-Aug-07 18:00N 38°52' W 077°01'0 0.8
2018-Aug-07 17:30N 38°52' W 077°01'4 7.4
2018-Aug-07 16:58N 38°48' W 077°02'4 8.9
2018-Aug-07 16:28N 38°53' W 077°02'3 6.3
2018-Aug-07 15:57N 38°50' W 077°02'1 2.3
2018-Aug-07 15:30N 38°49' W 077°02'4 7.0
2018-Aug-07 14:54N 38°53' W 077°02'0 0.9
2018-Aug-07 14:28N 38°52' W 077°01'2 3.3
2018-Aug-07 13:59N 38°51' W 077°01'2 4.5
2018-Aug-07 13:30N 38°49' W 077°02'4 7.8
2018-Aug-07 12:59N 38°53' W 077°02'0 0.0
2018-Aug-07 12:28N 38°53' W 077°02'0 0.2
2018-Aug-07 12:00N 38°53' W 077°02'0 0.0
2018-Aug-07 03:11N 38°53' W 077°02'0 0.3
2018-Aug-07 02:56N 38°53' W 077°02'4 9.8
2018-Aug-07 02:30N 38°49' W 077°02'3 5.0
2018-Aug-07 01:58N 38°51' W 077°01'1 3.1
2018-Aug-07 01:30N 38°53' W 077°02'4 6.8
2018-Aug-07 00:52N 38°48' W 077°02'4 9.1
2018-Aug-07 00:22N 38°53' W 077°02'0 0.8
2018-Aug-07 00:00N 38°53' W 077°01'4 8.2
2018-Aug-06 23:29N 38°48' W 077°02'4 9.1
2018-Aug-06 23:00N 38°53' W 077°02'4 9.0
2018-Aug-06 22:31N 38°48' W 077°02'3 6.2
2018-Aug-06 21:58N 38°52' W 077°01'1 1.2
2018-Aug-06 21:27N 38°52' W 077°01'4 7.6
2018-Aug-06 20:55N 38°48' W 077°02'4 7.4
2018-Aug-06 20:19N 38°53' W 077°02'2 5.9
2018-Aug-06 20:00N 38°51' W 077°01'2 2.0
2018-Aug-06 19:01N 38°53' W 077°02'0 0.1
2018-Aug-06 18:57N 38°53' W 077°02'4 9.4
2018-Aug-06 18:29N 38°48' W 077°02'3 5.7
2018-Aug-06 17:57N 38°51' W 077°01'1 3.0
2018-Aug-06 17:30N 38°53' W 077°02'4 6.4
2018-Aug-06 16:50N 38°49' W 077°02'410.7
2018-Aug-06 16:26N 38°53' W 077°02'4 6.9
2018-Aug-06 15:55N 38°49' W 077°02'1 1.8
2018-Aug-06 15:29N 38°48' W 077°02'4 9.0
2018-Aug-06 15:00N 38°53' W 077°02'0 0.0
2018-Aug-06 14:19N 38°53' W 077°02'  
Track history (hours):
 
Tides and Currents Weather Stations Pressure Air Temp Water Temp Dewpoint Dewpoint Depression Visibility Wind Speed Wind Dir Waves Ship Positions

Potomac Taxi I

Owner: Potomac River Boat Company, Alexandria, VA. More information available from US FCC via Universal Licensing System and Coast Guard Vessel Documentation Center.

Last reported at 2018-Aug-16 04:25 UTC. Time now 2018-Aug-16 08:01 UTC.
Position N 38°53' W 077°02'.

Length 27 m.

Type: Passenger vessel. MMSI: 368006220.

Date/timePositionNaut miles runAvg speedWind from/ knotsBaromVisibWave heightAir tempDewpointWater temp
2018-Aug-16 04:25N 38°53' W 077°02'0 0.0
2018-Aug-16 03:55N 38°53' W 077°02'0 0.0
2018-Aug-16 03:25N 38°53' W 077°02'0 0.0
2018-Aug-16 02:56N 38°53' W 077°02'0 0.5
2018-Aug-16 02:30N 38°53' W 077°02'611.5
2018-Aug-16 02:00N 38°47' W 077°01'1 1.7
2018-Aug-16 01:28N 38°48' W 077°02'5 9.6
2018-Aug-16 00:55N 38°53' W 077°02'2 5.6
2018-Aug-16 00:30N 38°50' W 077°01'3 4.9
2018-Aug-15 23:49N 38°47' W 077°01'2 7.7
2018-Aug-15 23:30N 38°49' W 077°02'3 6.3
2018-Aug-15 22:59N 38°53' W 077°02'611.6
2018-Aug-15 22:28N 38°47' W 077°02'1 1.3
2018-Aug-15 21:59N 38°47' W 077°01'510.9
2018-Aug-15 21:30N 38°52' W 077°01'1 2.2
2018-Aug-15 20:59N 38°51' W 077°01'4 5.3
2018-Aug-15 20:14N 38°47' W 077°01'1 3.5
2018-Aug-15 20:00N 38°47' W 077°02'610.1
2018-Aug-15 19:26N 38°53' W 077°02'1 3.1
2018-Aug-15 19:00N 38°51' W 077°01'4 5.9
2018-Aug-15 18:16N 38°47' W 077°01'1 5.3
2018-Aug-15 18:00N 38°48' W 077°02'5 9.2
2018-Aug-15 17:30N 38°53' W 077°02'1 2.2
2018-Aug-15 17:00N 38°52' W 077°01'5 6.3
2018-Aug-15 16:17N 38°47' W 077°01'1 4.0
2018-Aug-15 16:00N 38°48' W 077°02'5 8.3
2018-Aug-15 15:25N 38°53' W 077°02'4 9.9
2018-Aug-15 15:00N 38°49' W 077°02'2 2.9
2018-Aug-15 14:25N 38°47' W 077°01'5 9.4
2018-Aug-15 13:56N 38°52' W 077°01'1 2.3
2018-Aug-15 13:24N 38°53' W 077°02'0 0.0
2018-Aug-15 12:54N 38°53' W 077°02'411.1
2018-Aug-15 12:31N 38°48' W 077°02'1 2.7
2018-Aug-15 11:59N 38°47' W 077°01'5 9.8
2018-Aug-15 11:30N 38°52' W 077°01'1 0.1
2018-Aug-15 04:21N 38°53' W 077°02'410.4
2018-Aug-15 04:00N 38°49' W 077°02'2 4.7
2018-Aug-15 03:30N 38°47' W 077°01'510.2
2018-Aug-15 02:59N 38°52' W 077°01'1 1.4
2018-Aug-15 02:29N 38°52' W 077°01'4 5.3
2018-Aug-15 01:40N 38°47' W 077°01'1 4.9
2018-Aug-15 01:30N 38°47' W 077°02'611.9
2018-Aug-15 01:00N 38°53' W 077°02'2 4.3
2018-Aug-15 00:30N 38°51' W 077°01'4 5.2
2018-Aug-14 23:45N 38°47' W 077°02'2 8.4
2018-Aug-14 23:30N 38°49' W 077°02'4 7.8
2018-Aug-14 23:00N 38°53' W 077°02'5 8.8
2018-Aug-14 22:28N 38°48' W 077°02'1 2.2
2018-Aug-14 21:53N 38°47' W 077°02'513.5
2018-Aug-14 21:30N 38°52' W 077°01'0 0.2
2018-Aug-14 21:00N 38°52' W 077°01'5 6.1
2018-Aug-14 20:15N 38°47' W 077°01'1 3.4
2018-Aug-14 20:00N 38°47' W 077°02'611.2
2018-Aug-14 19:30N 38°53' W 077°02'1 2.1
2018-Aug-14 19:00N 38°52' W 077°01'5 5.8
2018-Aug-14 18:12N 38°47' W 077°01'1 3.8
2018-Aug-14 17:58N 38°48' W 077°02'510.3
2018-Aug-14 17:27N 38°53' W 077°02'1 2.2
2018-Aug-14 16:57N 38°52' W 077°01'5 9.8
2018-Aug-14 16:29N 38°47' W 077°01'1 1.8
2018-Aug-14 16:00N 38°47' W 077°02'610.1
2018-Aug-14 15:27N 38°53' W 077°02'3 7.4
2018-Aug-14 14:59N 38°49' W 077°02'3 3.6
2018-Aug-14 14:14N 38°47' W 077°02'413.2
2018-Aug-14 13:55N 38°51' W 077°01'2 3.7
2018-Aug-14 13:30N 38°52' W 077°01'0 0.7
2018-Aug-14 12:54N 38°53' W 077°02'511.4
2018-Aug-14 12:30N 38°48' W 077°02'2 2.4
2018-Aug-14 11:52N 38°47' W 077°02'412.1
2018-Aug-14 11:30N 38°51' W 077°01'2 2.5
2018-Aug-14 10:50N 38°53' W 077°02'0 0.0
2018-Aug-13 20:01N 38°53' W 077°02'0 0.0
2018-Aug-13 19:55N 38°53' W 077°02'0 0.0
2018-Aug-13 18:12N 38°53' W 077°02'0 0.0
2018-Aug-13 18:00N 38°53' W 077°02'0 0.5
2018-Aug-13 17:12N 38°52' W 077°01'0 0.0
2018-Aug-13 16:54N 38°52' W 077°01'0 0.0
2018-Aug-13 16:21N 38°52' W 077°01'0 0.0
2018-Aug-13 15:54N 38°52' W 077°01'0 0.0
2018-Aug-13 15:21N 38°52' W 077°01'0 0.0
2018-Aug-13 14:54N 38°52' W 077°01'0 0.1
2018-Aug-13 14:29N 38°52' W 077°01'0 0.7
2018-Aug-13 13:52N 38°53' W 077°02'0 0.1
2018-Aug-13 13:28N 38°53' W 077°02'0 0.0
2018-Aug-13 02:47N 38°53' W 077°02'413.7
2018-Aug-13 02:30N 38°49' W 077°02'2 4.3
2018-Aug-13 02:00N 38°51' W 077°01'1 1.1
2018-Aug-13 01:24N 38°52' W 077°01'3 6.0
2018-Aug-13 00:50N 38°48' W 077°02'412.5
2018-Aug-13 00:29N 38°53' W 077°02'0 0.2
2018-Aug-13 00:00N 38°53' W 077°02'4 8.3
2018-Aug-12 23:29N 38°48' W 077°02'4 6.9
2018-Aug-12 22:50N 38°53' W 077°02'412.6
2018-Aug-12 22:30N 38°49' W 077°02'3 6.6
2018-Aug-12 22:00N 38°52' W 077°01'0 0.9
2018-Aug-12 21:28N 38°52' W 077°01'4 8.5
2018-Aug-12 21:00N 38°48' W 077°02'4 7.6
2018-Aug-12 20:25N 38°53' W 077°02'4 8.2
2018-Aug-12 19:56N 38°49' W 077°02'0 0.5
2018-Aug-12 19:26N 38°49' W 077°02'4 7.1
2018-Aug-12 18:51N 38°53' W 077°02'410.9
2018-Aug-12 18:27N 38°48' W 077°02'3 7.3
2018-Aug-12 18:00N 38°52' W 077°01'1 1.6
2018-Aug-12 17:30N 38°52' W 077°01'4 7.5
2018-Aug-12 16:58N 38°48' W 077°02'4 9.5
2018-Aug-12 16:30N 38°53' W 077°02'3 5.7
2018-Aug-12 16:00N 38°50' W 077°02'1 2.4
2018-Aug-12 15:30N 38°49' W 077°02'4 8.0
2018-Aug-12 14:59N 38°53' W 077°02'0 0.0
2018-Aug-12 14:26N 38°53' W 077°02'0 0.1
2018-Aug-12 13:55N 38°53' W 077°02'0 0.0
2018-Aug-12 04:28N 38°53' W 077°02'1 1.9
2018-Aug-12 04:00N 38°52' W 077°01'4 7.2
2018-Aug-12 03:30N 38°48' W 077°02'4 7.5
2018-Aug-12 02:55N 38°53' W 077°02'410.2
2018-Aug-12 02:29N 38°48' W 077°02'3 5.3
2018-Aug-12 02:00N 38°51' W 077°01'2 3.1
2018-Aug-12 01:30N 38°52' W 077°01'4 8.0
2018-Aug-12 00:58N 38°48' W 077°02'4 5.1
2018-Aug-12 00:06N 38°53' W 077°02'0 3.8
2018-Aug-12 00:00N 38°52' W 077°01'4 8.0
2018-Aug-11 23:29N 38°48' W 077°02'4 7.6
2018-Aug-11 22:54N 38°53' W 077°02'410.1
2018-Aug-11 22:28N 38°48' W 077°02'4 8.6
2018-Aug-11 22:00N 38°52' W 077°01'1 1.9
2018-Aug-11 21:29N 38°51' W 077°01'3 6.4
2018-Aug-11 21:00N 38°48' W 077°02'4 8.3
2018-Aug-11 20:29N 38°53' W 077°02'1 2.9
2018-Aug-11 19:58N 38°51' W 077°01'1 1.2
2018-Aug-11 19:27N 38°51' W 077°01'1 2.6
2018-Aug-11 18:58N 38°52' W 077°01'3 7.2
2018-Aug-11 18:30N 38°48' W 077°02'3 5.7
2018-Aug-11 17:59N 38°51' W 077°01'1 2.2
2018-Aug-11 17:29N 38°52' W 077°01'4 7.9
2018-Aug-11 16:57N 38°48' W 077°02'4 9.2
2018-Aug-11 16:28N 38°53' W 077°02'2 4.2
2018-Aug-11 16:00N 38°51' W 077°01'2 4.6
2018-Aug-11 15:30N 38°49' W 077°02'4 7.0
2018-Aug-11 14:55N 38°53' W 077°02'0 0.1
2018-Aug-11 14:29N 38°53' W 077°02'0 0.0
2018-Aug-11 13:59N 38°53' W 077°02'0 0.0
2018-Aug-11 13:26N 38°53' W 077°02'0 0.0
2018-Aug-11 12:56N 38°53' W 077°02'0 0.0
2018-Aug-11 12:17N 38°53' W 077°02'0 0.0
2018-Aug-11 11:59N 38°53' W 077°02'0 0.0
2018-Aug-11 11:29N 38°53' W 077°02'0 0.0
2018-Aug-11 10:59N 38°53' W 077°02'0 0.0
2018-Aug-11 10:29N 38°53' W 077°02'0 0.0
2018-Aug-11 09:59N 38°53' W 077°02'0 0.0
2018-Aug-11 09:26N 38°53' W 077°02'0 0.0
2018-Aug-11 08:59N 38°53' W 077°02'0 0.0
2018-Aug-11 08:29N 38°53' W 077°02'0 0.0
2018-Aug-11 08:00N 38°53' W 077°02'0 0.0
2018-Aug-11 07:29N 38°53' W 077°02'0 0.0
2018-Aug-11 06:59N 38°53' W 077°02'0 0.0
2018-Aug-11 06:20N 38°53' W 077°02'0 0.0
2018-Aug-11 05:56N 38°53' W 077°02'0 0.0
2018-Aug-11 05:29N 38°53' W 077°02'0 0.0
2018-Aug-11 04:59N 38°53' W 077°02'0 0.0
2018-Aug-11 04:26N 38°53' W 077°02'1 1.7
2018-Aug-11 04:00N 38°52' W 077°01'4 7.7
2018-Aug-11 03:30N 38°48' W 077°02'4 7.7
2018-Aug-11 02:56N 38°53' W 077°02'4 9.7
2018-Aug-11 02:29N 38°48' W 077°02'4 7.0
2018-Aug-11 01:57N 38°52' W 077°01'0 0.8
2018-Aug-11 01:30N 38°52' W 077°01'4 6.3
2018-Aug-11 00:51N 38°48' W 077°02'411.2
2018-Aug-11 00:28N 38°53' W 077°02'0 1.0
2018-Aug-10 23:59N 38°52' W 077°01'4 7.8
2018-Aug-10 23:29N 38°48' W 077°02'4 7.6
2018-Aug-10 22:54N 38°53' W 077°02'410.8
2018-Aug-10 22:30N 38°48' W 077°02'4 6.5
2018-Aug-10 21:57N 38°52' W 077°01'0 0.8
2018-Aug-10 21:30N 38°52' W 077°01'4 7.1
2018-Aug-10 20:55N 38°48' W 077°02'410.6
2018-Aug-10 20:30N 38°53' W 077°02'2 3.4
2018-Aug-10 20:00N 38°51' W 077°01'2 4.1
2018-Aug-10 19:29N 38°49' W 077°02'4 7.6
2018-Aug-10 18:59N 38°53' W 077°02'4 7.9
2018-Aug-10 18:26N 38°48' W 077°02'4 9.0
2018-Aug-10 18:00N 38°52' W 077°01'0 0.2
2018-Aug-10 17:29N 38°52' W 077°01'4 6.6
2018-Aug-10 16:54N 38°48' W 077°02'410.7
2018-Aug-10 16:29N 38°53' W 077°02'2 4.6
2018-Aug-10 15:59N 38°51' W 077°01'2 3.0
2018-Aug-10 15:29N 38°52' W 077°01'0 0.8
2018-Aug-10 15:00N 38°52' W 077°01'0 0.1
2018-Aug-10 14:26N 38°52' W 077°01'1 1.8
2018-Aug-10 14:00N 38°52' W 077°01'2 2.9
2018-Aug-10 13:26N 38°50' W 077°02'3 4.1
2018-Aug-10 12:45N 38°53' W 077°02'0 0.0
2018-Aug-10 12:16N 38°53' W 077°02'0 0.0
2018-Aug-10 03:00N 38°53' W 077°02'4 8.3
2018-Aug-10 02:30N 38°49' W 077°02'3 5.2
2018-Aug-10 02:00N 38°51' W 077°01'1 2.7
2018-Aug-10 01:30N 38°52' W 077°01'4 8.1
2018-Aug-10 00:59N 38°48' W 077°02'4 8.8
2018-Aug-10 00:30N 38°53' W 077°01'1 1.1
2018-Aug-09 23:57N 38°52' W 077°01'4 8.4
2018-Aug-09 23:30N 38°48' W 077°02'4 7.3
2018-Aug-09 22:54N 38°53' W 077°02'410.4
2018-Aug-09 22:29N 38°48' W 077°02'3 5.9
2018-Aug-09 21:59N 38°51' W 077°01'1 2.7
2018-Aug-09 21:30N 38°52' W 077°01'4 8.5
2018-Aug-09 21:00N 38°48' W 077°02'4 8.6
2018-Aug-09 20:29N 38°53' W 077°02'2 3.5
2018-Aug-09 19:59N 38°51' W 077°01'3 5.6
2018-Aug-09 19:30N 38°48' W 077°02'4 7.9
2018-Aug-09 18:57N 38°53' W 077°02'410.1
2018-Aug-09 18:30N 38°48' W 077°02'3 5.0
2018-Aug-09 17:59N 38°51' W 077°01'2 3.5
2018-Aug-09 17:30N 38°53' W 077°01'4 8.6
2018-Aug-09 17:00N 38°48' W 077°02'4 8.6
2018-Aug-09 16:30N 38°53' W 077°02'2 3.4
2018-Aug-09 15:59N 38°51' W 077°01'2 5.1
2018-Aug-09 15:30N 38°48' W 077°02'4 8.1
2018-Aug-09 14:58N 38°53' W 077°02'0 0.1
2018-Aug-09 14:27N 38°53' W 077°02'0 0.2
2018-Aug-09 13:59N 38°53' W 077°02'0 0.0
2018-Aug-09 02:55N 38°53' W 077°02'410.2
2018-Aug-09 02:30N 38°48' W 077°02'3 6.1
2018-Aug-09 02:00N 38°51' W 077°01'1 2.1
2018-Aug-09 01:30N 38°52' W 077°01'4 6.5
2018-Aug-09 00:52N 38°48' W 077°02'412.1
2018-Aug-09 00:30N 38°53' W 077°01'0 0.5
2018-Aug-09 00:00N 38°52' W 077°01'4 7.2
2018-Aug-08 23:27N 38°48' W 077°02'4 7.8
2018-Aug-08 22:54N 38°53' W 077°02'410.5
2018-Aug-08 22:30N 38°48' W 077°02'4 6.7
2018-Aug-08 21:57N 38°52' W 077°01'0 0.7
2018-Aug-08 21:29N 38°52' W 077°01'4 8.2
2018-Aug-08 20:59N 38°48' W 077°02'4 9.1
2018-Aug-08 20:29N 38°53' W 077°02'2 3.5
2018-Aug-08 20:00N 38°51' W 077°01'3 5.0
2018-Aug-08 19:29N 38°49' W 077°02'4 6.7
2018-Aug-08 18:52N 38°53' W 077°02'411.5
2018-Aug-08 18:30N 38°48' W 077°02'3 6.3
2018-Aug-08 18:00N 38°51' W 077°01'1 2.1
2018-Aug-08 17:29N 38°52' W 077°01'4 6.1
2018-Aug-08 16:49N 38°48' W 077°02'411.1
2018-Aug-08 16:25N 38°53' W 077°02'2 3.8
2018-Aug-08 15:58N 38°51' W 077°01'3 6.1
2018-Aug-08 15:30N 38°48' W 077°02'4 8.6
2018-Aug-08 14:59N 38°53' W 077°02'0 0.1
2018-Aug-08 14:30N 38°53' W 077°02'0 0.0
2018-Aug-08 03:01N 38°53' W 077°02'0 0.8
2018-Aug-08 02:53N 38°53' W 077°02'411.7
2018-Aug-08 02:30N 38°48' W 077°02'3 6.2
2018-Aug-08 02:00N 38°51' W 077°01'1 2.2
2018-Aug-08 01:30N 38°52' W 077°01'4 7.5
2018-Aug-08 00:56N 38°48' W 077°02'4 9.3
2018-Aug-08 00:29N 38°53' W 077°02'1 1.4
2018-Aug-07 23:59N 38°52' W 077°01'4 7.4
2018-Aug-07 23:29N 38°48' W 077°02'4 7.6
2018-Aug-07 22:55N 38°53' W 077°02'410.4
2018-Aug-07 22:29N 38°48' W 077°02'3 6.2
2018-Aug-07 21:58N 38°52' W 077°01'1 1.6
2018-Aug-07 21:28N 38°52' W 077°01'4 8.3
2018-Aug-07 20:58N 38°48' W 077°02'4 9.3
2018-Aug-07 20:30N 38°53' W 077°02'4 7.0
2018-Aug-07 19:56N 38°49' W 077°02'0 0.7
2018-Aug-07 19:29N 38°49' W 077°02'4 6.4
2018-Aug-07 18:55N 38°53' W 077°02'410.4
2018-Aug-07 18:30N 38°49' W 077°02'3 6.7
2018-Aug-07 18:00N 38°52' W 077°01'0 0.8
2018-Aug-07 17:30N 38°52' W 077°01'4 7.4
2018-Aug-07 16:58N 38°48' W 077°02'4 8.9
2018-Aug-07 16:28N 38°53' W 077°02'3 6.3
2018-Aug-07 15:57N 38°50' W 077°02'1 2.3
2018-Aug-07 15:30N 38°49' W 077°02'4 7.0
2018-Aug-07 14:54N 38°53' W 077°02'0 0.9
2018-Aug-07 14:28N 38°52' W 077°01'2 3.3
2018-Aug-07 13:59N 38°51' W 077°01'2 4.5
2018-Aug-07 13:30N 38°49' W 077°02'4 7.8
2018-Aug-07 12:59N 38°53' W 077°02'0 0.0
2018-Aug-07 12:28N 38°53' W 077°02'0 0.2
2018-Aug-07 12:00N 38°53' W 077°02'0 0.0
2018-Aug-07 03:11N 38°53' W 077°02'0 0.3
2018-Aug-07 02:56N 38°53' W 077°02'4 9.8
2018-Aug-07 02:30N 38°49' W 077°02'3 5.0
2018-Aug-07 01:58N 38°51' W 077°01'1 3.1
2018-Aug-07 01:30N 38°53' W 077°02'4 6.8
2018-Aug-07 00:52N 38°48' W 077°02'4 9.1
2018-Aug-07 00:22N 38°53' W 077°02'0 0.8
2018-Aug-07 00:00N 38°53' W 077°01'4 8.2
2018-Aug-06 23:29N 38°48' W 077°02'4 9.1
2018-Aug-06 23:00N 38°53' W 077°02'4 9.0
2018-Aug-06 22:31N 38°48' W 077°02'3 6.2
2018-Aug-06 21:58N 38°52' W 077°01'1 1.2
2018-Aug-06 21:27N 38°52' W 077°01'4 7.6
2018-Aug-06 20:55N 38°48' W 077°02'4 7.4
2018-Aug-06 20:19N 38°53' W 077°02'2 5.9
2018-Aug-06 20:00N 38°51' W 077°01'2 2.0
2018-Aug-06 19:01N 38°53' W 077°02'0 0.1
2018-Aug-06 18:57N 38°53' W 077°02'4 9.4
2018-Aug-06 18:29N 38°48' W 077°02'3 5.7
2018-Aug-06 17:57N 38°51' W 077°01'1 3.0
2018-Aug-06 17:30N 38°53' W 077°02'4 6.4
2018-Aug-06 16:50N 38°49' W 077°02'410.7
2018-Aug-06 16:26N 38°53' W 077°02'4 6.9
2018-Aug-06 15:55N 38°49' W 077°02'1 1.8
2018-Aug-06 15:29N 38°48' W 077°02'4 9.0
2018-Aug-06 15:00N 38°53' W 077°02'0 0.0
2018-Aug-06 14:19N 38°53' W 077°02'  

Dump ship's entire track history